Portada
METAR-TAF:

METAR-TAF

Aeroports :

San Pedro Sula, Hondures

latitud: 15-27N, longitud: 087-56W, altitud: 31 m

Observació

L'informe es va fer fa 32 minuts, a les 00:00 UTC
Vent 10 kt del Nord/Nord-Est
Temperatura 29°C
Humitat 66%
Pressió 1012 hPa
Visibilitat 10 km o més
Escasses núvols a una alçada de 2600 ft

METAR: MHLM 170000Z 03010KT 9999 FEW026 29/22 Q1012 A2989 NOSIG

Hora: 18:32 (00:32 UTC)

Pronòstic

L'informe es va fer fa 1 hora i 32 minuts, a les 23:00 UTC
Pronòstic vàlid del 17 a les 00 UTC al 17 a les 24 UTC
Vent 10 kt del Nord-Est
Visibilitat 10 km o més
Escasses núvols a una alçada de 2800 ft
Evolucionant progressivament
l' 17 a les 06 UTC al 17 a les 08 UTC
Vent 4 kt amb direcció variable
Evolucionant progressivament
l' 17 a les 18 UTC al 17 a les 20 UTC
Vent 10 kt del Nord-Est

TAF: MHLM 162300Z 1700/1724 05010KT 9999 FEW028 TX34/1720Z TN23/1712Z BECMG 1706/1708 VRB04KT BECMG 1718/1720 04010KT

Observacions i pronòstics meteorològics de més de 4000 aeroports (METAR i TAF).

Les estacions disponibles són els punts grocs i vermells al mapa.

Posi el ratolí al punt desitjat per veure el nom de l'estació.

Feu clic per veure les observacions i els pronòstics meteorològics.

Per canviar el mapa: feu clic els botons verds amb una creu de color negre per apropar; al botó verd amb un guió per allunyar la imatge; o en les fletxes verdes per a mapes adjacents.


METAR-TAF: